createdAt,value
2023-03-22T00:03:13.880Z,69.33
2023-03-22T00:08:16.790Z,69.36
2023-03-22T00:13:19.868Z,69.10
2023-03-22T00:18:22.842Z,69.52
2023-03-22T00:23:26.921Z,69.06
2023-03-22T00:28:29.874Z,68.59
2023-03-22T00:33:33.662Z,68.49
2023-03-22T00:38:44.077Z,68.85
2023-03-22T00:43:48.880Z,68.75
2023-03-22T00:48:52.010Z,68.40
2023-03-22T00:53:54.991Z,68.99
2023-03-22T00:58:57.916Z,68.94
2023-03-22T01:04:00.914Z,69.42
2023-03-22T01:09:05.075Z,69.27
2023-03-22T01:14:09.900Z,69.57
2023-03-22T01:19:12.822Z,68.96
2023-03-22T01:24:16.802Z,69.01
2023-03-22T01:29:19.791Z,68.05
2023-03-22T01:34:23.122Z,68.54
2023-03-22T01:39:27.361Z,68.54
2023-03-22T01:44:31.670Z,68.43
2023-03-22T01:49:35.833Z,67.98
2023-03-22T01:54:43.620Z,68.80
2023-03-22T01:59:48.051Z,69.05
2023-03-22T02:04:51.077Z,68.83
2023-03-22T02:09:54.565Z,68.77
2023-03-22T02:15:09.511Z,68.36
2023-03-22T02:20:47.880Z,68.41
2023-03-22T02:26:39.379Z,68.77
2023-03-22T02:31:47.319Z,68.69
2023-03-22T02:37:23.567Z,69.24
2023-03-22T02:42:49.095Z,69.25
2023-03-22T02:47:58.833Z,69.43
2023-03-22T02:53:19.511Z,69.25
2023-03-22T02:58:50.436Z,69.30
2023-03-22T03:04:00.066Z,69.34
2023-03-22T03:09:05.160Z,69.57
2023-03-22T03:14:20.956Z,68.71
2023-03-22T03:19:35.417Z,67.89
2023-03-22T03:25:09.465Z,68.85
2023-03-22T03:30:19.823Z,69.19
2023-03-22T03:35:29.839Z,69.11
2023-03-22T03:40:37.734Z,70.03
2023-03-22T03:45:44.513Z,70.65
2023-03-22T03:50:51.029Z,71.50
2023-03-22T03:55:54.214Z,71.91
2023-03-22T04:00:57.236Z,72.09
2023-03-22T04:06:00.253Z,72.53
2023-03-22T04:11:03.207Z,71.83
2023-03-22T04:16:07.245Z,71.91
2023-03-22T04:21:12.260Z,71.16
2023-03-22T04:26:15.404Z,70.29
2023-03-22T04:31:18.587Z,70.44
2023-03-22T04:36:23.834Z,70.34
2023-03-22T04:41:26.746Z,69.85
2023-03-22T04:46:35.993Z,70.04
2023-03-22T04:51:38.981Z,69.29
2023-03-22T04:56:42.016Z,70.42
2023-03-22T05:01:44.979Z,70.99
2023-03-22T05:06:48.486Z,70.68
2023-03-22T05:11:51.446Z,70.57
2023-03-22T05:16:54.455Z,70.79
2023-03-22T05:21:58.407Z,70.76
2023-03-22T05:27:01.560Z,70.49
2023-03-22T05:32:04.654Z,70.21
2023-03-22T05:37:07.625Z,70.32
2023-03-22T05:42:10.709Z,70.67
2023-03-22T05:47:13.747Z,70.87
2023-03-22T05:52:16.799Z,71.26
2023-03-22T05:57:19.751Z,71.63
2023-03-22T06:02:23.072Z,71.70
2023-03-22T06:07:26.621Z,72.53
2023-03-22T06:12:30.269Z,73.10
2023-03-22T06:17:33.260Z,73.49
2023-03-22T06:22:36.309Z,73.80
2023-03-22T06:27:39.241Z,74.11
2023-03-22T06:32:42.198Z,74.42
2023-03-22T06:37:45.139Z,75.03
2023-03-22T06:42:48.641Z,75.70
2023-03-22T06:47:51.647Z,76.00
2023-03-22T06:52:55.120Z,75.80
2023-03-22T06:57:58.072Z,75.46
2023-03-22T07:03:01.457Z,75.18
2023-03-22T07:08:04.455Z,75.28
2023-03-22T07:13:07.393Z,75.42
2023-03-22T07:18:10.684Z,75.26
2023-03-22T07:23:13.785Z,75.38
2023-03-22T07:28:16.854Z,75.52
2023-03-22T07:33:19.837Z,75.19
2023-03-22T07:38:22.820Z,75.33
2023-03-22T07:43:25.790Z,74.67
2023-03-22T07:48:31.242Z,75.12
2023-03-22T07:53:34.922Z,74.20
2023-03-22T07:58:37.855Z,73.41
2023-03-22T08:03:40.865Z,73.51
2023-03-22T08:08:43.805Z,73.11
2023-03-22T08:13:46.785Z,72.57
2023-03-22T08:18:49.758Z,72.91
2023-03-22T08:23:53.013Z,73.20
2023-03-22T08:28:57.104Z,72.79
2023-03-22T08:34:00.141Z,71.91
2023-03-22T08:39:04.056Z,72.32
2023-03-22T08:44:07.220Z,70.82
2023-03-22T08:49:10.653Z,70.82
2023-03-22T08:54:13.814Z,71.00
2023-03-22T08:59:16.772Z,71.30
2023-03-22T09:04:19.778Z,70.70
2023-03-22T09:09:22.782Z,68.66
2023-03-22T09:14:25.961Z,69.36
2023-03-22T09:19:29.007Z,69.12
2023-03-22T09:24:31.932Z,68.35
2023-03-22T09:29:35.008Z,67.80
2023-03-22T09:34:37.929Z,67.20
2023-03-22T09:39:41.901Z,66.86
2023-03-22T09:44:46.713Z,66.90
2023-03-22T09:50:00.830Z,66.46
2023-03-22T09:55:14.156Z,66.46
2023-03-22T10:00:40.579Z,66.02
2023-03-22T10:05:51.466Z,66.15
2023-03-22T10:10:54.610Z,65.96
2023-03-22T10:16:02.961Z,65.47
2023-03-22T10:21:12.609Z,65.36
2023-03-22T10:26:29.506Z,64.03
2023-03-22T10:31:34.202Z,63.02
2023-03-22T10:36:40.248Z,62.94
2023-03-22T10:41:45.476Z,62.91
2023-03-22T10:46:49.743Z,62.92
2023-03-22T10:51:58.297Z,63.04
2023-03-22T10:57:01.245Z,63.08
2023-03-22T11:02:04.511Z,62.36
2023-03-22T11:07:26.094Z,62.15
2023-03-22T11:12:29.407Z,61.74
2023-03-22T11:17:33.257Z,60.59
2023-03-22T11:22:48.207Z,60.75
2023-03-22T11:28:05.982Z,59.33
2023-03-22T11:33:08.948Z,59.86
2023-03-22T11:38:41.966Z,59.91
2023-03-22T11:43:48.581Z,58.20
2023-03-22T11:49:01.577Z,58.12
2023-03-22T11:54:36.492Z,58.91
2023-03-22T11:59:48.234Z,58.78
2023-03-22T12:05:01.895Z,59.05
2023-03-22T12:10:41.082Z,59.27
2023-03-22T12:15:51.807Z,59.61
2023-03-22T12:20:58.287Z,59.29
2023-03-22T12:26:11.657Z,59.46
2023-03-22T12:31:44.547Z,59.21
2023-03-22T12:36:56.233Z,59.78
2023-03-22T12:42:10.962Z,59.53
2023-03-22T12:47:20.385Z,60.55
2023-03-22T12:52:34.858Z,60.64
2023-03-22T12:57:44.813Z,60.59
2023-03-22T13:02:59.355Z,59.61
2023-03-22T13:08:05.541Z,59.51
2023-03-22T13:13:24.298Z,59.94
2023-03-22T13:18:36.422Z,60.18
2023-03-22T13:24:10.375Z,60.25
2023-03-22T13:29:20.968Z,60.55
2023-03-22T13:34:49.243Z,60.41
2023-03-22T13:39:52.420Z,60.62
2023-03-22T13:45:00.139Z,59.86
2023-03-22T13:50:28.491Z,59.52
2023-03-22T13:55:46.499Z,59.78
2023-03-22T14:00:55.415Z,59.86
2023-03-22T14:06:23.823Z,59.66
2023-03-22T14:11:38.142Z,59.85
2023-03-22T14:16:50.809Z,59.44
